Time;durP1;ratioP1;P1;durP2;ratioP2;P2;SDS_P1;SDS_P2;PMS_P1;PMS_P2;Temp;Humidity;BMP_temperature;BMP_pressure;BME280_temperature;BME280_humidity;BME280_pressure;Samples;Min_cycle;Max_cycle;Signal;HPM_P1;HPM_P2
2022/05/24 00:01:39;;;;;;;3.57;1.17;;;;;;;6.46;100.00;99179.98;1759432;80;20902;-49
2022/05/24 00:04:06;;;;;;;2.90;1.00;;;;;;;6.38;100.00;99177.59;1758535;80;20970;-50
2022/05/24 00:06:33;;;;;;;3.00;0.90;;;;;;;6.32;100.00;99173.84;1760385;80;20931;-47
2022/05/24 00:08:59;;;;;;;5.93;1.20;;;;;;;6.33;100.00;99185.41;1755595;80;20930;-48
2022/05/24 00:11:25;;;;;;;3.17;0.97;;;;;;;6.32;100.00;99186.33;1757942;80;22421;-46
2022/05/24 00:13:52;;;;;;;4.07;1.10;;;;;;;6.29;100.00;99186.02;1759789;80;20931;-49
2022/05/24 00:16:19;;;;;;;2.43;1.23;;;;;;;6.29;100.00;99192.70;1763185;80;20946;-47
2022/05/24 00:18:46;;;;;;;3.33;1.03;;;;;;;6.28;100.00;99186.07;1732590;80;21022;-48
2022/05/24 00:21:13;;;;;;;2.50;1.50;;;;;;;6.24;100.00;99194.66;1759179;80;20946;-46
2022/05/24 00:23:40;;;;;;;3.37;1.93;;;;;;;6.20;100.00;99197.06;1697342;82;21084;-46
2022/05/24 00:26:09;;;;;;;5.73;1.10;;;;;;;6.17;100.00;99198.97;1762584;80;20907;-47
2022/05/24 00:28:35;;;;;;;4.57;1.60;;;;;;;6.11;100.00;99196.55;1758838;80;20927;-46
2022/05/24 00:31:02;;;;;;;4.17;1.37;;;;;;;6.04;100.00;99194.09;1762977;79;20970;-48
2022/05/24 00:33:28;;;;;;;3.30;1.10;;;;;;;6.00;100.00;99187.14;1761925;80;22643;-47
2022/05/24 00:35:54;;;;;;;2.80;0.90;;;;;;;5.97;100.00;99197.06;1762251;80;21077;-46
2022/05/24 00:38:30;;;;;;;3.20;1.17;;;;;;;5.92;100.00;99191.91;1740940;80;21033;-46
2022/05/24 00:41:26;;;;;;;4.50;1.40;;;;;;;5.91;100.00;99197.30;1761878;79;21065;-48
2022/05/24 00:44:21;;;;;;;5.60;1.20;;;;;;;5.89;100.00;99194.69;1770868;80;20892;-48
2022/05/24 00:47:01;;;;;;;1.50;1.00;;;;;;;5.89;100.00;99196.48;1764853;80;21551;-45
2022/05/24 00:49:34;;;;;;;2.73;1.40;;;;;;;5.93;100.00;99203.47;1765938;79;22622;-46
2022/05/24 00:52:12;;;;;;;6.50;2.77;;;;;;;5.95;100.00;99203.83;1767562;80;21053;-46
2022/05/24 00:54:38;;;;;;;2.03;1.57;;;;;;;5.94;100.00;99200.75;1766976;80;21061;-46
2022/05/24 00:57:13;;;;;;;3.40;1.53;;;;;;;5.92;100.00;99205.27;1764776;80;21144;-45
2022/05/24 00:59:53;;;;;;;4.33;1.70;;;;;;;5.86;100.00;99206.81;1766178;79;21705;-45
2022/05/24 01:02:19;;;;;;;2.77;2.23;;;;;;;5.80;100.00;99203.02;1769483;79;22265;-45
2022/05/24 01:04:48;;;;;;;2.17;1.40;;;;;;;5.78;100.00;99205.36;1768328;80;20883;-45
2022/05/24 01:07:15;;;;;;;3.97;1.47;;;;;;;5.76;100.00;99211.21;1766987;80;21096;-47
2022/05/24 01:09:46;;;;;;;3.50;1.30;;;;;;;5.68;100.00;99210.17;1764864;79;21082;-49
2022/05/24 01:12:19;;;;;;;4.17;1.77;;;;;;;5.64;100.00;99210.73;1770471;80;20989;-45
2022/05/24 01:14:46;;;;;;;2.40;1.13;;;;;;;5.64;100.00;99216.07;1762473;80;21251;-45
2022/05/24 01:17:13;;;;;;;3.17;1.33;;;;;;;5.60;100.00;99209.58;1762591;79;21117;-46
2022/05/24 01:19:46;;;;;;;6.13;1.73;;;;;;;5.61;100.00;99205.49;1765072;80;21049;-47
2022/05/24 01:22:27;;;;;;;3.03;1.30;;;;;;;5.63;100.00;99210.31;1769712;80;21065;-49
2022/05/24 01:25:10;;;;;;;4.17;1.10;;;;;;;5.64;100.00;99209.39;1765511;80;21422;-47
2022/05/24 01:27:37;;;;;;;4.50;1.70;;;;;;;5.62;100.00;99212.58;1769502;79;21134;-46
2022/05/24 01:30:05;;;;;;;2.70;1.60;;;;;;;5.58;100.00;99212.30;1766218;80;21249;-45
2022/05/24 01:38:04;;;;;;;4.27;1.57;;;;;;;5.51;100.00;99204.11;1766843;80;21642;-48
2022/05/24 01:40:31;;;;;;;5.30;1.23;;;;;;;5.44;100.00;99203.94;1763456;80;21697;-48
2022/05/24 01:42:57;;;;;;;2.37;0.97;;;;;;;5.39;100.00;99201.88;1761776;80;21081;-48
2022/05/24 01:47:05;;;;;;;4.97;1.40;;;;;;;5.37;100.00;99202.38;1794773;78;23206;-45
2022/05/24 01:49:35;;;;;;;2.20;1.07;;;;;;;5.30;100.00;99207.53;1765456;80;21061;-48
2022/05/24 01:52:15;;;;;;;2.37;1.10;;;;;;;5.31;100.00;99212.83;1770946;80;21108;-48
2022/05/24 01:54:47;;;;;;;3.77;1.10;;;;;;;5.30;100.00;99209.74;1771549;79;21021;-46
2022/05/24 01:57:19;;;;;;;2.43;1.00;;;;;;;5.29;100.00;99212.00;1763969;80;21032;-47
2022/05/24 01:59:49;;;;;;;4.13;1.40;;;;;;;5.30;100.00;99206.20;1763866;80;22102;-46
2022/05/24 02:02:16;;;;;;;2.23;1.10;;;;;;;5.30;100.00;99212.41;1762742;80;20956;-47
2022/05/24 02:04:42;;;;;;;2.37;1.30;;;;;;;5.32;100.00;99211.03;1758069;80;21220;-46
2022/05/24 02:07:16;;;;;;;4.70;1.70;;;;;;;5.33;100.00;99215.45;1765107;80;21152;-47
2022/05/24 02:09:47;;;;;;;4.10;1.93;;;;;;;5.29;100.00;99219.13;1763189;80;20931;-46
2022/05/24 02:12:19;;;;;;;2.97;1.20;;;;;;;5.24;100.00;99223.31;1763560;80;21030;-47
2022/05/24 02:14:58;;;;;;;5.00;1.23;;;;;;;5.14;100.00;99238.35;1767142;80;20923;-46
2022/05/24 02:17:52;;;;;;;2.50;1.00;;;;;;;5.02;100.00;99235.62;1761805;80;20997;-47
2022/05/24 02:20:29;;;;;;;2.43;1.33;;;;;;;4.97;100.00;99236.26;1765118;79;21022;-48
2022/05/24 02:22:56;;;;;;;2.50;1.27;;;;;;;4.98;100.00;99237.13;1736073;80;21433;-48
2022/05/24 02:25:35;;;;;;;1.67;0.93;;;;;;;5.01;100.00;99242.38;1763115;80;21053;-48
2022/05/24 02:28:02;;;;;;;4.63;1.00;;;;;;;5.06;100.00;99241.28;1760827;80;21041;-48
2022/05/24 02:30:30;;;;;;;4.07;1.50;;;;;;;5.13;100.00;99240.14;1762378;80;20934;-48
2022/05/24 02:32:57;;;;;;;7.73;1.73;;;;;;;5.19;100.00;99239.09;1769661;80;20954;-47
2022/05/24 02:35:24;;;;;;;3.07;1.73;;;;;;;5.25;100.00;99237.53;1760287;80;21366;-47
2022/05/24 02:37:51;;;;;;;6.93;1.70;;;;;;;5.26;100.00;99234.81;1761372;80;20936;-47
2022/05/24 02:43:03;;;;;;;;;;;;;;;5.26;100.00;99239.27;1766384;80;21185;-47
2022/05/24 02:45:29;;;;;;;5.10;1.77;;;;;;;5.21;100.00;99247.88;1763543;80;20262;-47
2022/05/24 02:47:56;;;;;;;8.43;2.50;;;;;;;5.17;100.00;99232.46;1746803;81;21133;-47
2022/05/24 02:50:22;;;;;;;4.13;1.97;;;;;;;5.15;100.00;99240.97;1750194;81;22797;-47
2022/05/24 02:52:49;;;;;;;6.67;1.87;;;;;;;5.13;100.00;99236.60;1746278;79;22204;-47
2022/05/24 02:55:17;;;;;;;1.80;1.20;;;;;;;5.09;100.00;99237.19;1748432;80;21857;-47
2022/05/24 02:57:45;;;;;;;6.03;1.70;;;;;;;5.08;100.00;99232.78;1746115;81;21050;-47
2022/05/24 03:00:20;;;;;;;6.33;1.90;;;;;;;5.06;100.00;99237.28;1749545;80;21136;-47
2022/05/24 03:02:47;;;;;;;8.40;1.20;;;;;;;5.06;100.00;99241.28;1756552;80;20987;-47
2022/05/24 03:05:14;;;;;;;2.47;1.40;;;;;;;5.04;100.00;99247.13;1755510;80;21529;-47
2022/05/24 03:10:26;;;;;;;5.47;1.17;;;;;;;5.11;100.00;99244.66;1752906;81;21034;-47
2022/05/24 03:15:39;;;;;;;3.17;1.92;;;;;;;5.17;100.00;99253.80;1752427;79;20903;-47
2022/05/24 03:18:07;;;;;;;3.93;1.77;;;;;;;5.21;100.00;99258.09;1752169;81;20880;-48
2022/05/24 03:20:35;;;;;;;7.37;2.37;;;;;;;5.25;100.00;99261.08;1755008;81;21694;-47
2022/05/24 03:23:03;;;;;;;5.03;2.03;;;;;;;5.29;100.00;99265.83;1749315;80;20955;-47
2022/05/24 03:25:32;;;;;;;3.40;1.40;;;;;;;5.30;100.00;99266.25;1750559;80;20938;-47
2022/05/24 03:27:59;;;;;;;3.40;1.60;;;;;;;5.36;100.00;99266.02;1749553;80;20955;-47
2022/05/24 03:30:27;;;;;;;3.97;1.90;;;;;;;5.44;100.00;99263.11;1749407;80;20931;-47
2022/05/24 03:32:53;;;;;;;6.73;3.97;;;;;;;5.54;100.00;99268.52;1747993;80;21193;-47
2022/05/24 03:35:21;;;;;;;7.23;3.77;;;;;;;5.67;100.00;99274.71;1750643;79;21403;-47
2022/05/24 03:37:49;;;;;;;8.23;4.37;;;;;;;5.81;100.00;99266.19;1755400;81;21333;-47
2022/05/24 03:40:15;;;;;;;7.97;4.63;;;;;;;5.97;100.00;99263.39;1751308;80;21082;-47
2022/05/24 03:42:42;;;;;;;14.70;6.63;;;;;;;6.15;100.00;99271.64;1751735;80;21038;-47
2022/05/24 03:45:10;;;;;;;14.87;6.90;;;;;;;6.34;100.00;99262.00;1745689;79;21116;-48
2022/05/24 03:47:37;;;;;;;18.50;7.93;;;;;;;6.52;100.00;99261.28;1748652;80;21094;-47
2022/05/24 03:50:07;;;;;;;15.10;9.10;;;;;;;6.70;100.00;99263.69;1748922;80;21090;-47
2022/05/24 03:52:35;;;;;;;15.47;7.97;;;;;;;6.83;100.00;99263.12;1745631;80;21094;-48
2022/05/24 03:55:03;;;;;;;18.93;8.27;;;;;;;6.97;100.00;99263.91;1687697;83;21117;-48
2022/05/24 04:00:16;;;;;;;16.82;9.73;;;;;;;7.21;100.00;99264.22;1744951;80;21095;-47
2022/05/24 04:02:42;;;;;;;20.87;10.57;;;;;;;7.35;100.00;99263.61;1747838;80;21212;-47
2022/05/24 04:05:10;;;;;;;18.37;9.63;;;;;;;7.45;100.00;99258.27;1747964;80;21775;-47
2022/05/24 04:07:37;;;;;;;21.23;8.17;;;;;;;7.56;100.00;99267.19;1688018;83;21517;-47
2022/05/24 04:10:06;;;;;;;16.47;10.03;;;;;;;7.66;100.00;99269.84;1748600;81;22020;-47
2022/05/24 04:12:32;;;;;;;18.23;8.90;;;;;;;7.78;100.00;99272.45;1747410;80;21128;-47
2022/05/24 04:15:01;;;;;;;18.27;9.43;;;;;;;7.90;100.00;99273.27;1753186;81;21039;-47
2022/05/24 04:17:27;;;;;;;18.47;9.33;;;;;;;8.04;100.00;99273.96;1744155;81;22715;-47
2022/05/24 04:19:53;;;;;;;18.53;10.67;;;;;;;8.16;100.00;99275.63;1748709;80;21066;-47
2022/05/24 04:22:20;;;;;;;19.63;9.93;;;;;;;8.27;100.00;99274.64;1746470;80;20986;-48
2022/05/24 04:24:46;;;;;;;15.20;8.30;;;;;;;8.39;100.00;99277.73;1750601;81;21068;-47
2022/05/24 04:27:13;;;;;;;15.93;9.20;;;;;;;8.50;100.00;99279.45;1753963;81;21085;-48
2022/05/24 04:29:40;;;;;;;16.30;9.03;;;;;;;8.61;100.00;99279.32;1749578;79;21068;-47
2022/05/24 04:32:09;;;;;;;16.65;9.53;;;;;;;8.72;100.00;99276.13;1750847;79;22190;-48
2022/05/24 04:34:37;;;;;;;17.95;9.65;;;;;;;8.81;100.00;99280.19;1752497;81;21089;-47
2022/05/24 04:37:07;;;;;;;10.63;8.18;;;;;;;8.91;100.00;99278.80;1749152;81;21060;-46
2022/05/24 04:39:35;;;;;;;14.63;9.05;;;;;;;9.01;100.00;99279.63;1752006;80;21476;-47
2022/05/24 04:42:19;;;;;;;20.45;8.10;;;;;;;9.14;100.00;99281.69;1747121;79;21097;-46
2022/05/24 04:44:47;;;;;;;10.32;7.08;;;;;;;9.27;100.00;99277.45;1749813;81;21522;-47
2022/05/24 04:47:14;;;;;;;17.35;7.90;;;;;;;9.42;100.00;99281.57;1750645;80;22592;-49
2022/05/24 04:49:50;;;;;;;19.12;9.05;;;;;;;9.55;100.00;99281.80;1749059;80;21254;-48
2022/05/24 04:52:18;;;;;;;19.70;9.18;;;;;;;9.70;100.00;99282.34;1750889;79;21001;-47
2022/05/24 04:54:45;;;;;;;18.52;8.73;;;;;;;9.85;100.00;99289.63;1747264;80;21088;-49
2022/05/24 04:57:12;;;;;;;13.38;8.20;;;;;;;9.98;100.00;99282.23;1746476;79;21104;-49
2022/05/24 04:59:38;;;;;;;22.50;8.68;;;;;;;10.10;100.00;99286.98;1748690;79;21114;-46
2022/05/24 05:02:06;;;;;;;22.13;9.35;;;;;;;10.23;100.00;99286.73;1748388;80;21078;-50
2022/05/24 05:04:32;;;;;;;12.73;8.13;;;;;;;10.35;100.00;99290.11;1753830;79;20964;-49
2022/05/24 05:06:58;;;;;;;13.65;9.30;;;;;;;10.46;100.00;99283.64;1753639;81;21336;-50
2022/05/24 05:09:25;;;;;;;13.38;8.20;;;;;;;10.58;100.00;99279.41;1748429;80;21061;-49
2022/05/24 05:11:51;;;;;;;14.53;8.28;;;;;;;10.68;100.00;99283.34;1747804;79;22164;-47
2022/05/24 05:14:19;;;;;;;22.93;9.33;;;;;;;10.79;100.00;99282.73;1745154;80;21998;-48
2022/05/24 05:16:46;;;;;;;16.75;8.65;;;;;;;10.89;100.00;99279.41;1751521;81;21018;-48
2022/05/24 05:19:12;;;;;;;16.07;8.18;;;;;;;11.00;100.00;99276.98;1746796;80;21065;-48
2022/05/24 05:21:40;;;;;;;17.27;8.88;;;;;;;11.13;100.00;99286.59;1751955;81;21042;-49
2022/05/24 05:24:07;;;;;;;13.75;7.12;;;;;;;11.24;100.00;99282.77;1751355;81;21947;-50
2022/05/24 05:26:34;;;;;;;11.60;6.97;;;;;;;11.36;100.00;99283.89;1751192;80;21081;-48
2022/05/24 05:29:01;;;;;;;12.00;6.65;;;;;;;11.49;100.00;99282.20;1753568;79;20901;-50
2022/05/24 05:31:28;;;;;;;8.60;6.00;;;;;;;11.63;100.00;99284.95;1751147;80;20948;-48
2022/05/24 05:34:03;;;;;;;12.40;5.33;;;;;;;11.78;100.00;99284.55;1749850;79;21081;-51
2022/05/24 05:36:31;;;;;;;10.88;5.65;;;;;;;11.92;100.00;99290.44;1746004;80;21900;-51
2022/05/24 05:38:57;;;;;;;9.45;4.87;;;;;;;12.05;100.00;99284.69;1747009;79;21121;-49
2022/05/24 05:41:28;;;;;;;9.95;5.87;;;;;;;12.21;100.00;99284.61;1743681;79;21074;-52
2022/05/24 05:43:56;;;;;;;10.32;5.50;;;;;;;12.32;100.00;99285.69;1746486;79;21122;-51
2022/05/24 05:46:23;;;;;;;7.87;4.47;;;;;;;12.45;100.00;99279.88;1746598;79;21108;-47
2022/05/24 05:48:51;;;;;;;10.13;5.15;;;;;;;12.59;100.00;99287.09;1743330;81;21119;-48
2022/05/24 05:51:18;;;;;;;11.53;3.70;;;;;;;12.71;100.00;99283.62;1748950;79;20980;-48
2022/05/24 05:53:45;;;;;;;4.92;2.12;;;;;;;12.80;100.00;99281.68;1750130;80;21366;-50
2022/05/24 05:56:17;;;;;;;3.80;2.00;;;;;;;12.91;100.00;99289.09;1747943;80;20911;-50
2022/05/24 05:58:44;;;;;;;7.58;2.45;;;;;;;13.02;100.00;99283.84;1746042;79;21317;-50
2022/05/24 06:01:19;;;;;;;10.00;2.52;;;;;;;13.14;100.00;99278.16;1756322;80;21099;-47
2022/05/24 06:03:48;;;;;;;3.27;1.20;;;;;;;13.26;100.00;99278.70;1745837;79;20860;-47
2022/05/24 06:06:18;;;;;;;4.37;1.60;;;;;;;13.38;100.00;99282.41;1751439;81;20967;-48
2022/05/24 06:08:44;;;;;;;3.65;1.37;;;;;;;13.48;100.00;99280.34;1749071;79;22169;-50
2022/05/24 06:11:11;;;;;;;5.45;1.45;;;;;;;13.59;100.00;99280.48;1707086;83;20958;-48
2022/05/24 06:13:38;;;;;;;2.62;1.90;;;;;;;13.70;100.00;99284.27;1748245;81;20986;-49
2022/05/24 06:16:04;;;;;;;2.67;1.10;;;;;;;13.80;100.00;99294.85;1750736;81;21438;-51
2022/05/24 06:18:31;;;;;;;3.42;1.65;;;;;;;13.87;100.00;99290.75;1754364;81;20965;-49
2022/05/24 06:20:58;;;;;;;3.40;0.98;;;;;;;14.01;100.00;99284.78;1750056;80;21561;-49
2022/05/24 06:23:25;;;;;;;5.75;0.90;;;;;;;14.01;100.00;99284.78;1704514;81;21125;-50
2022/05/24 06:25:51;;;;;;;1.65;1.00;;;;;;;14.06;100.00;99281.73;1746813;79;22468;-51
2022/05/24 06:28:18;;;;;;;2.50;0.90;;;;;;;14.14;100.00;99282.06;1749421;79;21379;-51
2022/05/24 06:30:44;;;;;;;3.17;0.90;;;;;;;14.26;100.00;99292.05;1749637;81;21020;-50
2022/05/24 06:33:12;;;;;;;3.60;0.75;;;;;;;14.26;100.00;99292.05;1748502;80;20999;-49
2022/05/24 06:35:39;;;;;;;1.30;0.70;;;;;;;14.35;100.00;99287.83;1746883;79;20907;-50
2022/05/24 06:38:08;;;;;;;1.92;0.70;;;;;;;14.35;100.00;99287.83;1751744;79;21996;-49
2022/05/24 06:42:57;;;;;;;2.03;0.70;;;;;;;14.52;100.00;99281.23;1869092;75;23623;-48
2022/05/24 06:45:23;;;;;;;0.93;0.53;;;;;;;14.52;100.00;99289.36;1840625;77;20976;-51
2022/05/24 06:47:50;;;;;;;0.90;0.50;;;;;;;14.57;100.00;99279.92;1836279;77;21194;-48
2022/05/24 06:50:16;;;;;;;3.05;0.50;;;;;;;14.62;100.00;99280.47;1832564;77;20962;-47
2022/05/24 06:52:43;;;;;;;1.42;0.50;;;;;;;14.68;100.00;99284.57;1838699;76;20940;-47
2022/05/24 06:55:10;;;;;;;1.45;0.50;;;;;;;14.74;100.00;99288.18;1836757;77;20942;-48
2022/05/24 06:57:37;;;;;;;1.67;0.50;;;;;;;14.76;100.00;99282.17;1835921;77;21047;-47
2022/05/24 07:03:00;;;;;;;1.85;0.60;;;;;;;14.85;100.00;99291.47;1838214;77;20914;-48
2022/05/24 07:05:27;;;;;;;0.60;0.50;;;;;;;14.89;100.00;99301.09;1825054;77;21047;-47
2022/05/24 07:07:53;;;;;;;3.27;0.55;;;;;;;14.92;100.00;99296.81;1833728;77;21108;-49
2022/05/24 07:10:21;;;;;;;1.20;0.37;;;;;;;14.93;100.00;99299.42;1837518;77;21699;-49
2022/05/24 07:13:04;;;;;;;0.80;0.42;;;;;;;14.96;100.00;99296.50;1835187;76;21070;-50
2022/05/24 07:15:31;;;;;;;1.35;0.45;;;;;;;15.02;100.00;99291.97;1832927;76;21033;-50
2022/05/24 07:17:57;;;;;;;3.72;0.40;;;;;;;15.07;100.00;99299.27;1836882;77;21072;-48
2022/05/24 07:20:25;;;;;;;0.60;0.40;;;;;;;15.13;100.00;99292.05;1826076;77;21041;-48
2022/05/24 07:22:54;;;;;;;2.70;0.33;;;;;;;15.21;100.00;99301.45;1834878;77;21026;-47
2022/05/24 07:25:21;;;;;;;0.60;0.40;;;;;;;15.28;100.00;99290.03;1837983;76;21070;-49
2022/05/24 07:27:48;;;;;;;1.20;0.30;;;;;;;15.38;100.00;99301.94;1842969;76;21013;-48
2022/05/24 07:30:15;;;;;;;0.30;0.30;;;;;;;15.46;100.00;99305.42;1828652;77;21034;-49
2022/05/24 07:32:42;;;;;;;0.90;0.55;;;;;;;15.51;100.00;99301.38;1834120;77;21017;-48
2022/05/24 07:35:11;;;;;;;3.80;0.40;;;;;;;15.57;100.00;99302.78;1838739;77;21475;-51
2022/05/24 07:37:37;;;;;;;0.60;0.40;;;;;;;15.63;100.00;99309.61;1838495;76;21167;-47
2022/05/24 07:48:13;;;;;;;0.60;0.30;;;;;;;15.79;100.00;99297.46;1837587;76;21594;-50
2022/05/24 07:50:40;;;;;;;3.45;0.35;;;;;;;15.83;100.00;99298.08;1833810;76;21206;-50
2022/05/24 07:53:08;;;;;;;3.40;0.30;;;;;;;15.87;100.00;99296.88;1834758;77;21060;-50
2022/05/24 07:55:35;;;;;;;0.53;0.30;;;;;;;15.92;100.00;99305.52;1834014;77;20882;-49
2022/05/24 07:58:02;;;;;;;0.60;0.30;;;;;;;15.94;100.00;99297.26;1837921;77;21111;-51
2022/05/24 08:00:28;;;;;;;1.20;0.40;;;;;;;15.95;100.00;99308.48;1833586;77;21388;-50
2022/05/24 08:02:55;;;;;;;0.95;0.40;;;;;;;15.96;100.00;99307.02;1796144;79;21136;-48
2022/05/24 08:05:22;;;;;;;2.90;0.40;;;;;;;16.02;100.00;99307.03;1770535;78;21033;-49
2022/05/24 08:07:50;;;;;;;2.85;0.30;;;;;;;16.06;100.00;99301.26;1773541;80;21049;-51
2022/05/24 08:10:17;;;;;;;0.40;0.40;;;;;;;16.11;100.00;99304.47;1769040;80;20932;-50
2022/05/24 08:12:44;;;;;;;4.75;0.50;;;;;;;16.19;100.00;99309.30;1774236;78;21025;-50
2022/05/24 08:15:11;;;;;;;2.30;0.47;;;;;;;16.26;100.00;99311.41;1775346;79;21339;-50
2022/05/24 08:17:37;;;;;;;1.70;0.45;;;;;;;16.32;100.00;99308.72;1769211;79;21013;-50
2022/05/24 08:20:06;;;;;;;2.45;0.70;;;;;;;16.35;100.00;99311.17;1777579;80;21562;-50
2022/05/24 08:22:33;;;;;;;0.68;0.40;;;;;;;16.38;100.00;99306.00;1780282;80;20882;-51
2022/05/24 08:24:59;;;;;;;1.98;0.40;;;;;;;16.38;100.00;99312.30;1763128;79;21043;-51
2022/05/24 08:27:26;;;;;;;1.07;0.50;;;;;;;16.41;100.00;99309.84;1794010;78;21510;-51
2022/05/24 08:29:53;;;;;;;0.70;0.33;;;;;;;16.40;100.00;99308.98;1766551;79;21442;-50
2022/05/24 08:32:20;;;;;;;0.62;0.40;;;;;;;16.38;100.00;99309.59;1769218;80;21152;-49
2022/05/24 08:34:48;;;;;;;3.42;0.40;;;;;;;16.40;100.00;99313.06;1775397;80;21140;-51
2022/05/24 08:37:14;;;;;;;2.47;0.93;;;;;;;16.43;100.00;99307.36;1796320;79;21049;-49
2022/05/24 08:39:43;;;;;;;0.78;0.40;;;;;;;16.46;100.00;99305.77;1764839;79;21080;-50
2022/05/24 08:42:29;;;;;;;4.00;0.40;;;;;;;16.53;100.00;99300.22;1761829;78;21058;-49
2022/05/24 08:50:32;;;;;;;1.00;0.40;;;;;;;16.79;100.00;99298.65;1754039;80;20938;-51
2022/05/24 08:53:04;;;;;;;3.83;0.40;;;;;;;16.81;100.00;99306.19;1751166;80;21142;-51
2022/05/24 08:55:32;;;;;;;3.60;0.40;;;;;;;16.80;100.00;99302.61;1757340;80;20941;-50
2022/05/24 08:57:59;;;;;;;1.42;0.40;;;;;;;16.81;100.00;99298.91;1750658;80;20957;-51
2022/05/24 09:00:33;;;;;;;0.72;0.37;;;;;;;16.85;100.00;99304.94;1726853;80;20875;-48
2022/05/24 09:02:59;;;;;;;4.50;0.60;;;;;;;16.88;100.00;99304.70;1766754;79;20958;-50
2022/05/24 09:05:43;;;;;;;0.40;0.30;;;;;;;16.90;100.00;99301.38;1743659;80;21543;-49
2022/05/24 09:08:21;;;;;;;2.27;0.30;;;;;;;16.93;100.00;99307.41;1745866;80;21390;-50
2022/05/24 09:11:12;;;;;;;2.15;0.50;;;;;;;16.97;100.00;99303.46;1750802;80;20930;-47
2022/05/24 09:13:57;;;;;;;0.40;0.30;;;;;;;17.03;100.00;99303.45;1744959;80;20886;-51
2022/05/24 09:16:32;;;;;;;0.65;0.33;;;;;;;17.11;100.00;99307.76;1744464;80;20894;-47
2022/05/24 09:19:23;;;;;;;0.80;0.35;;;;;;;17.18;100.00;99298.63;1752891;80;21069;-50
2022/05/24 09:21:52;;;;;;;0.60;0.30;;;;;;;17.24;100.00;99297.62;1748096;80;21103;-49
2022/05/24 09:24:41;;;;;;;1.67;0.35;;;;;;;17.27;100.00;99294.63;1746375;80;21420;-45
2022/05/24 09:27:18;;;;;;;0.40;0.40;;;;;;;17.33;100.00;99287.34;1749008;80;21144;-49
2022/05/24 09:29:56;;;;;;;1.32;0.37;;;;;;;17.42;100.00;99292.51;1747295;80;21092;-48
2022/05/24 09:32:24;;;;;;;1.20;0.40;;;;;;;17.44;100.00;99289.66;1736391;80;22539;-48
2022/05/24 09:35:02;;;;;;;1.15;0.30;;;;;;;17.44;100.00;99291.02;1724402;80;21267;-50
2022/05/24 09:37:29;;;;;;;1.15;0.40;;;;;;;17.45;100.00;99288.14;1750945;80;20969;-49
2022/05/24 09:40:00;;;;;;;0.70;0.30;;;;;;;17.47;100.00;99284.81;1744847;80;21083;-49
2022/05/24 09:42:30;;;;;;;0.45;0.45;;;;;;;17.48;100.00;99287.91;1756559;80;21239;-49
2022/05/24 09:45:10;;;;;;;1.65;0.37;;;;;;;17.52;100.00;99296.19;1775976;79;22318;-51
2022/05/24 09:47:51;;;;;;;0.40;0.33;;;;;;;17.58;100.00;99290.22;1770060;78;21317;-51
2022/05/24 09:50:32;;;;;;;1.20;0.40;;;;;;;17.62;100.00;99296.28;1774305;79;20996;-50
2022/05/24 09:53:16;;;;;;;1.15;0.30;;;;;;;17.68;100.00;99301.23;1773334;79;22489;-48
2022/05/24 09:55:53;;;;;;;1.07;0.30;;;;;;;17.72;100.00;99291.30;1778789;78;20922;-49
2022/05/24 09:58:39;;;;;;;0.85;0.30;;;;;;;17.81;100.00;99281.98;1774177;78;22219;-47
2022/05/24 10:01:13;;;;;;;0.30;0.30;;;;;;;17.91;100.00;99280.21;1739477;79;21097;-48
2022/05/24 10:03:44;;;;;;;0.62;0.28;;;;;;;17.98;100.00;99283.63;1764030;79;21100;-47
2022/05/24 10:06:31;;;;;;;0.50;0.30;;;;;;;18.02;100.00;99276.94;1767489;80;21085;-48
2022/05/24 10:09:21;;;;;;;1.25;0.30;;;;;;;18.06;100.00;99272.94;1764365;80;20997;-49
2022/05/24 10:11:57;;;;;;;0.42;0.30;;;;;;;18.10;100.00;99280.36;1759987;79;21226;-51
2022/05/24 10:14:43;;;;;;;6.65;0.30;;;;;;;18.13;100.00;99274.13;1767922;79;21018;-50
2022/05/24 10:17:16;;;;;;;;;;;;;;;18.14;100.00;99273.14;1767477;80;21140;-55
2022/05/24 10:20:30;;;;;;;0.60;0.30;;;;;;;18.08;100.00;99280.48;1759498;80;20489;-54
2022/05/24 10:23:05;;;;;;;0.60;0.40;;;;;;;18.01;100.00;99273.85;1766282;80;21410;-48
2022/05/24 10:26:00;;;;;;;0.50;0.37;;;;;;;18.03;100.00;99274.55;1764911;79;21159;-50
2022/05/24 10:28:56;;;;;;;0.98;0.40;;;;;;;18.09;100.00;99272.69;1762879;80;26984;-52
2022/05/24 10:31:49;;;;;;;0.62;0.30;;;;;;;18.14;100.00;99276.36;1767332;79;21041;-53
2022/05/24 10:40:38;;;;;;;0.50;0.30;;;;;;;18.21;100.00;99275.32;1759041;80;21322;-51
2022/05/24 10:43:18;;;;;;;0.35;0.30;;;;;;;18.17;100.00;99277.47;1760548;80;21022;-54
2022/05/24 10:46:00;;;;;;;0.47;0.30;;;;;;;18.08;100.00;99274.17;1751288;79;21041;-54
2022/05/24 10:48:57;;;;;;;3.35;0.40;;;;;;;18.01;100.00;99272.48;1762668;79;21128;-53
2022/05/24 10:51:39;;;;;;;1.82;0.30;;;;;;;18.02;100.00;99267.41;1761432;79;21089;-52
2022/05/24 10:54:29;;;;;;;0.98;0.40;;;;;;;18.05;100.00;99258.95;1763593;80;21105;-52
2022/05/24 10:57:13;;;;;;;1.17;0.50;;;;;;;18.10;100.00;99269.47;1761368;80;21084;-51
2022/05/24 11:00:13;;;;;;;0.30;0.30;;;;;;;18.13;100.00;99266.45;1768922;80;20865;-51
2022/05/24 11:03:11;;;;;;;0.70;0.40;;;;;;;18.20;100.00;99266.31;1765974;80;21049;-51
2022/05/24 11:06:01;;;;;;;1.25;0.30;;;;;;;18.23;100.00;99260.58;1766470;79;21065;-53
2022/05/24 11:08:52;;;;;;;3.40;0.23;;;;;;;18.25;100.00;99259.95;1744223;79;21293;-50
2022/05/24 11:12:06;;;;;;;0.33;0.30;;;;;;;18.27;100.00;99253.02;1763850;80;21046;-50
2022/05/24 11:14:45;;;;;;;0.30;0.20;;;;;;;18.31;100.00;99266.72;1763660;80;21294;-50
2022/05/24 11:17:12;;;;;;;2.55;0.50;;;;;;;18.34;100.00;99255.56;1761917;79;21061;-50
2022/05/24 11:19:41;;;;;;;3.20;0.60;;;;;;;18.35;100.00;99261.37;1760356;79;21049;-50
2022/05/24 11:22:28;;;;;;;1.52;0.40;;;;;;;18.38;100.00;99257.00;1713844;80;21594;-53
2022/05/24 11:25:06;;;;;;;1.17;0.28;;;;;;;18.44;100.00;99260.07;1758725;80;21180;-49
2022/05/24 11:27:40;;;;;;;0.65;0.40;;;;;;;18.50;100.00;99267.70;1763124;79;21071;-52
2022/05/24 11:30:38;;;;;;;1.27;0.30;;;;;;;18.50;100.00;99267.70;1768597;80;20903;-53
2022/05/24 11:33:12;;;;;;;0.57;0.30;;;;;;;18.48;100.00;99269.69;1706951;82;21013;-50
2022/05/24 11:35:50;;;;;;;0.40;0.30;;;;;;;18.46;100.00;99265.36;1756697;79;21771;-50
2022/05/24 11:38:41;;;;;;;0.88;0.30;;;;;;;18.48;100.00;99268.82;1770200;79;20899;-52
2022/05/24 11:41:17;;;;;;;0.40;0.30;;;;;;;18.54;100.00;99273.22;1767853;79;20902;-51
2022/05/24 11:43:54;;;;;;;1.40;0.30;;;;;;;18.57;100.00;99266.67;1766397;79;20922;-51
2022/05/24 11:46:41;;;;;;;1.37;0.35;;;;;;;18.61;100.00;99277.69;1765563;79;20916;-52
2022/05/24 11:49:23;;;;;;;0.30;0.30;;;;;;;18.62;100.00;99263.06;1770641;80;22208;-52
2022/05/24 11:51:58;;;;;;;1.70;0.35;;;;;;;18.65;100.00;99270.08;1771920;80;21345;-51
2022/05/24 11:54:33;;;;;;;0.65;0.30;;;;;;;18.69;100.00;99260.64;1768118;79;20961;-52
2022/05/24 11:57:09;;;;;;;0.35;0.30;;;;;;;18.73;100.00;99257.99;1765801;80;21054;-48
2022/05/24 11:59:46;;;;;;;2.85;0.30;;;;;;;18.74;100.00;99256.50;1763262;80;21070;-52
2022/05/24 12:07:54;;;;;;;1.67;0.30;;;;;;;18.78;100.00;99257.97;1766448;80;21204;-53
2022/05/24 12:08:29;;;;;;;0.35;0.30;;;;;;;18.92;100.00;99253.12;1769495;80;21120;-52
2022/05/24 12:11:16;;;;;;;0.45;0.30;;;;;;;18.95;100.00;99249.62;1746754;80;20907;-52
2022/05/24 12:13:56;;;;;;;1.90;0.40;;;;;;;18.99;100.00;99257.88;1762662;79;21131;-54
2022/05/24 12:17:02;;;;;;;314.02;281.93;;;;;;;19.00;100.00;99256.02;1762583;80;22216;-52
2022/05/24 12:19:42;;;;;;;10.68;8.90;;;;;;;18.98;100.00;99256.14;1766207;80;21066;-52
2022/05/24 12:22:16;;;;;;;5.83;5.35;;;;;;;19.00;100.00;99245.97;1764603;79;21120;-51
2022/05/24 12:24:47;;;;;;;0.80;0.78;;;;;;;19.06;100.00;99245.40;1743243;80;22474;-52
2022/05/24 12:27:50;;;;;;;0.60;0.35;;;;;;;19.12;100.00;99245.36;1763816;79;21089;-53
2022/05/24 12:30:30;;;;;;;2.27;0.50;;;;;;;19.17;100.00;99242.56;1760716;80;21250;-52
2022/05/24 12:33:13;;;;;;;0.62;0.33;;;;;;;19.23;100.00;99252.04;1763927;79;21089;-52
2022/05/24 12:35:54;;;;;;;0.50;0.40;;;;;;;19.28;100.00;99245.67;1761345;79;21085;-52
2022/05/24 12:38:24;;;;;;;0.60;0.40;;;;;;;19.33;100.00;99255.66;1763326;79;21060;-54